sensor_id;sensor_type;location;lat;lon;timestamp;temperature;humidity
17092;DHT22;8661;45.700;4.880;2023-06-14T00:00:16;19.20;99.90
17092;DHT22;8661;45.700;4.880;2023-06-14T00:02:43;19.20;99.90
17092;DHT22;8661;45.700;4.880;2023-06-14T00:05:10;19.20;99.90
17092;DHT22;8661;45.700;4.880;2023-06-14T00:07:39;19.20;99.90
17092;DHT22;8661;45.700;4.880;2023-06-14T00:10:09;19.20;99.90
17092;DHT22;8661;45.700;4.880;2023-06-14T00:12:36;19.20;99.90
17092;DHT22;8661;45.700;4.880;2023-06-14T00:15:06;19.10;99.90
17092;DHT22;8661;45.700;4.880;2023-06-14T00:17:33;19.10;99.90
17092;DHT22;8661;45.700;4.880;2023-06-14T00:20:00;19.20;99.90
17092;DHT22;8661;45.700;4.880;2023-06-14T00:22:29;19.10;99.90
17092;DHT22;8661;45.700;4.880;2023-06-14T00:24:56;19.10;99.90
17092;DHT22;8661;45.700;4.880;2023-06-14T00:27:23;19.10;99.90
17092;DHT22;8661;45.700;4.880;2023-06-14T00:29:50;19.10;99.90
17092;DHT22;8661;45.700;4.880;2023-06-14T00:32:18;19.00;99.90
17092;DHT22;8661;45.700;4.880;2023-06-14T00:34:50;19.00;99.90
17092;DHT22;8661;45.700;4.880;2023-06-14T00:37:16;19.10;99.90
17092;DHT22;8661;45.700;4.880;2023-06-14T00:39:43;19.00;99.90
17092;DHT22;8661;45.700;4.880;2023-06-14T00:42:10;18.90;99.90
17092;DHT22;8661;45.700;4.880;2023-06-14T00:44:37;18.90;99.90
17092;DHT22;8661;45.700;4.880;2023-06-14T00:47:04;18.90;99.90
17092;DHT22;8661;45.700;4.880;2023-06-14T00:49:33;18.80;99.90
17092;DHT22;8661;45.700;4.880;2023-06-14T00:51:59;18.80;99.90
17092;DHT22;8661;45.700;4.880;2023-06-14T00:54:27;18.80;99.90
17092;DHT22;8661;45.700;4.880;2023-06-14T00:56:54;18.70;99.90
17092;DHT22;8661;45.700;4.880;2023-06-14T00:59:21;18.70;99.90
17092;DHT22;8661;45.700;4.880;2023-06-14T01:01:48;18.70;99.90
17092;DHT22;8661;45.700;4.880;2023-06-14T01:04:15;18.70;99.90
17092;DHT22;8661;45.700;4.880;2023-06-14T01:06:54;18.70;99.90
17092;DHT22;8661;45.700;4.880;2023-06-14T01:09:35;18.70;99.90
17092;DHT22;8661;45.700;4.880;2023-06-14T01:12:09;18.70;99.90
17092;DHT22;8661;45.700;4.880;2023-06-14T01:14:38;18.70;99.90
17092;DHT22;8661;45.700;4.880;2023-06-14T01:17:07;18.60;99.90
17092;DHT22;8661;45.700;4.880;2023-06-14T01:19:41;18.60;99.90
17092;DHT22;8661;45.700;4.880;2023-06-14T01:22:09;18.60;99.90
17092;DHT22;8661;45.700;4.880;2023-06-14T01:24:38;18.60;99.90
17092;DHT22;8661;45.700;4.880;2023-06-14T01:27:05;18.60;99.90
17092;DHT22;8661;45.700;4.880;2023-06-14T01:29:34;18.60;99.90
17092;DHT22;8661;45.700;4.880;2023-06-14T01:32:02;18.60;99.90
17092;DHT22;8661;45.700;4.880;2023-06-14T01:34:30;18.70;99.90
17092;DHT22;8661;45.700;4.880;2023-06-14T01:36:57;18.70;99.90
17092;DHT22;8661;45.700;4.880;2023-06-14T01:39:24;18.70;99.90
17092;DHT22;8661;45.700;4.880;2023-06-14T01:41:53;18.60;99.90
17092;DHT22;8661;45.700;4.880;2023-06-14T01:44:20;18.60;99.90
17092;DHT22;8661;45.700;4.880;2023-06-14T01:46:47;18.60;99.90
17092;DHT22;8661;45.700;4.880;2023-06-14T01:49:14;18.60;99.90
17092;DHT22;8661;45.700;4.880;2023-06-14T01:51:41;18.60;99.90
17092;DHT22;8661;45.700;4.880;2023-06-14T01:54:08;18.60;99.90
17092;DHT22;8661;45.700;4.880;2023-06-14T01:56:35;18.60;99.90
17092;DHT22;8661;45.700;4.880;2023-06-14T01:59:03;18.60;99.90
17092;DHT22;8661;45.700;4.880;2023-06-14T02:01:30;18.60;99.90
17092;DHT22;8661;45.700;4.880;2023-06-14T02:04:00;18.60;99.90
17092;DHT22;8661;45.700;4.880;2023-06-14T02:06:27;18.60;99.90
17092;DHT22;8661;45.700;4.880;2023-06-14T02:08:54;18.70;99.90
17092;DHT22;8661;45.700;4.880;2023-06-14T02:11:21;18.70;99.90
17092;DHT22;8661;45.700;4.880;2023-06-14T02:13:48;18.60;99.90
17092;DHT22;8661;45.700;4.880;2023-06-14T02:16:16;18.70;99.90
17092;DHT22;8661;45.700;4.880;2023-06-14T02:18:43;18.70;99.90
17092;DHT22;8661;45.700;4.880;2023-06-14T02:21:10;18.70;99.90
17092;DHT22;8661;45.700;4.880;2023-06-14T02:23:37;18.70;99.90
17092;DHT22;8661;45.700;4.880;2023-06-14T02:26:03;18.70;99.90
17092;DHT22;8661;45.700;4.880;2023-06-14T02:28:30;18.70;99.90
17092;DHT22;8661;45.700;4.880;2023-06-14T02:30:57;18.70;99.90
17092;DHT22;8661;45.700;4.880;2023-06-14T02:33:25;18.70;99.90
17092;DHT22;8661;45.700;4.880;2023-06-14T02:35:53;18.70;99.90
17092;DHT22;8661;45.700;4.880;2023-06-14T02:38:19;18.70;99.90
17092;DHT22;8661;45.700;4.880;2023-06-14T02:40:46;18.70;99.90
17092;DHT22;8661;45.700;4.880;2023-06-14T02:43:13;18.70;99.90
17092;DHT22;8661;45.700;4.880;2023-06-14T02:45:40;18.70;99.90
17092;DHT22;8661;45.700;4.880;2023-06-14T02:48:07;18.70;99.90
17092;DHT22;8661;45.700;4.880;2023-06-14T02:50:35;18.70;99.90
17092;DHT22;8661;45.700;4.880;2023-06-14T02:53:02;18.70;99.90
17092;DHT22;8661;45.700;4.880;2023-06-14T02:55:29;18.70;99.90
17092;DHT22;8661;45.700;4.880;2023-06-14T02:57:56;18.70;99.90
17092;DHT22;8661;45.700;4.880;2023-06-14T03:00:23;18.70;99.90
17092;DHT22;8661;45.700;4.880;2023-06-14T03:02:50;18.70;99.90
17092;DHT22;8661;45.700;4.880;2023-06-14T03:05:17;18.70;99.90
17092;DHT22;8661;45.700;4.880;2023-06-14T03:07:48;18.70;99.90
17092;DHT22;8661;45.700;4.880;2023-06-14T03:10:15;18.60;99.90
17092;DHT22;8661;45.700;4.880;2023-06-14T03:12:42;18.60;99.90
17092;DHT22;8661;45.700;4.880;2023-06-14T03:15:10;18.60;99.90
17092;DHT22;8661;45.700;4.880;2023-06-14T03:17:38;18.60;99.90
17092;DHT22;8661;45.700;4.880;2023-06-14T03:20:07;18.60;99.90
17092;DHT22;8661;45.700;4.880;2023-06-14T03:22:34;18.60;99.90
17092;DHT22;8661;45.700;4.880;2023-06-14T03:25:03;18.70;99.90
17092;DHT22;8661;45.700;4.880;2023-06-14T03:27:31;18.60;99.90
17092;DHT22;8661;45.700;4.880;2023-06-14T03:29:57;18.70;99.90
17092;DHT22;8661;45.700;4.880;2023-06-14T03:32:24;18.60;99.90
17092;DHT22;8661;45.700;4.880;2023-06-14T03:34:51;18.60;99.90
17092;DHT22;8661;45.700;4.880;2023-06-14T03:37:19;18.60;99.90
17092;DHT22;8661;45.700;4.880;2023-06-14T03:39:46;18.60;99.90
17092;DHT22;8661;45.700;4.880;2023-06-14T03:42:14;18.60;99.90
17092;DHT22;8661;45.700;4.880;2023-06-14T03:44:41;18.60;99.90
17092;DHT22;8661;45.700;4.880;2023-06-14T03:47:08;18.50;99.90
17092;DHT22;8661;45.700;4.880;2023-06-14T03:49:35;18.50;99.90
17092;DHT22;8661;45.700;4.880;2023-06-14T03:52:03;18.50;99.90
17092;DHT22;8661;45.700;4.880;2023-06-14T03:54:29;18.50;99.90
17092;DHT22;8661;45.700;4.880;2023-06-14T03:56:58;18.40;99.90
17092;DHT22;8661;45.700;4.880;2023-06-14T03:59:26;18.40;99.90
17092;DHT22;8661;45.700;4.880;2023-06-14T04:01:54;18.40;99.90
17092;DHT22;8661;45.700;4.880;2023-06-14T04:04:21;18.40;99.90
17092;DHT22;8661;45.700;4.880;2023-06-14T04:06:54;18.40;99.90
17092;DHT22;8661;45.700;4.880;2023-06-14T04:09:22;18.50;99.90
17092;DHT22;8661;45.700;4.880;2023-06-14T04:11:50;18.50;99.90
17092;DHT22;8661;45.700;4.880;2023-06-14T04:14:17;18.50;99.90
17092;DHT22;8661;45.700;4.880;2023-06-14T04:16:46;18.50;99.90
17092;DHT22;8661;45.700;4.880;2023-06-14T04:19:13;18.50;99.90
17092;DHT22;8661;45.700;4.880;2023-06-14T04:21:39;18.40;99.90
17092;DHT22;8661;45.700;4.880;2023-06-14T04:24:06;18.50;99.90
17092;DHT22;8661;45.700;4.880;2023-06-14T04:26:39;18.50;99.90
17092;DHT22;8661;45.700;4.880;2023-06-14T04:29:06;18.50;99.90
17092;DHT22;8661;45.700;4.880;2023-06-14T04:31:33;18.50;99.90
17092;DHT22;8661;45.700;4.880;2023-06-14T04:34:04;18.50;99.90
17092;DHT22;8661;45.700;4.880;2023-06-14T04:36:32;18.50;99.90
17092;DHT22;8661;45.700;4.880;2023-06-14T04:39:00;18.50;99.90
17092;DHT22;8661;45.700;4.880;2023-06-14T04:41:28;18.50;99.90
17092;DHT22;8661;45.700;4.880;2023-06-14T04:43:56;18.60;99.90
17092;DHT22;8661;45.700;4.880;2023-06-14T04:46:24;18.70;99.90
17092;DHT22;8661;45.700;4.880;2023-06-14T04:48:53;18.70;99.90
17092;DHT22;8661;45.700;4.880;2023-06-14T04:51:21;18.80;99.90
17092;DHT22;8661;45.700;4.880;2023-06-14T04:53:55;18.80;99.90
17092;DHT22;8661;45.700;4.880;2023-06-14T04:56:24;18.80;99.90
17092;DHT22;8661;45.700;4.880;2023-06-14T04:58:51;18.80;99.90
17092;DHT22;8661;45.700;4.880;2023-06-14T05:01:18;18.90;99.90
17092;DHT22;8661;45.700;4.880;2023-06-14T05:03:46;18.90;99.90
17092;DHT22;8661;45.700;4.880;2023-06-14T05:06:14;18.90;99.90
17092;DHT22;8661;45.700;4.880;2023-06-14T05:08:42;19.00;99.90
17092;DHT22;8661;45.700;4.880;2023-06-14T05:11:09;19.00;99.90
17092;DHT22;8661;45.700;4.880;2023-06-14T05:13:36;19.10;99.90
17092;DHT22;8661;45.700;4.880;2023-06-14T05:16:03;19.10;99.90
17092;DHT22;8661;45.700;4.880;2023-06-14T05:18:30;19.20;99.90
17092;DHT22;8661;45.700;4.880;2023-06-14T05:20:59;19.20;99.90
17092;DHT22;8661;45.700;4.880;2023-06-14T05:23:26;19.30;99.90
17092;DHT22;8661;45.700;4.880;2023-06-14T05:25:54;19.30;99.90
17092;DHT22;8661;45.700;4.880;2023-06-14T05:28:22;19.40;99.90
17092;DHT22;8661;45.700;4.880;2023-06-14T05:30:49;19.50;99.90
17092;DHT22;8661;45.700;4.880;2023-06-14T05:33:16;19.60;99.90
17092;DHT22;8661;45.700;4.880;2023-06-14T05:35:43;19.70;99.90
17092;DHT22;8661;45.700;4.880;2023-06-14T05:38:10;19.80;99.90
17092;DHT22;8661;45.700;4.880;2023-06-14T05:40:37;19.80;99.90
17092;DHT22;8661;45.700;4.880;2023-06-14T05:43:05;19.90;99.90
17092;DHT22;8661;45.700;4.880;2023-06-14T05:45:32;20.00;99.90
17092;DHT22;8661;45.700;4.880;2023-06-14T05:47:59;20.10;99.90
17092;DHT22;8661;45.700;4.880;2023-06-14T05:50:26;20.20;99.90
17092;DHT22;8661;45.700;4.880;2023-06-14T05:52:53;20.20;99.90
17092;DHT22;8661;45.700;4.880;2023-06-14T05:55:20;20.30;99.90
17092;DHT22;8661;45.700;4.880;2023-06-14T05:57:47;20.30;99.90
17092;DHT22;8661;45.700;4.880;2023-06-14T06:00:17;20.30;99.90
17092;DHT22;8661;45.700;4.880;2023-06-14T06:02:45;20.30;99.90
17092;DHT22;8661;45.700;4.880;2023-06-14T06:05:13;20.40;99.90
17092;DHT22;8661;45.700;4.880;2023-06-14T06:07:41;20.40;99.90
17092;DHT22;8661;45.700;4.880;2023-06-14T06:10:10;20.50;99.90
17092;DHT22;8661;45.700;4.880;2023-06-14T06:12:37;20.50;99.90
17092;DHT22;8661;45.700;4.880;2023-06-14T06:15:05;20.70;99.90
17092;DHT22;8661;45.700;4.880;2023-06-14T06:17:34;20.80;99.90
17092;DHT22;8661;45.700;4.880;2023-06-14T06:20:01;20.90;99.90
17092;DHT22;8661;45.700;4.880;2023-06-14T06:22:29;21.10;99.90
17092;DHT22;8661;45.700;4.880;2023-06-14T06:24:56;21.30;99.90
17092;DHT22;8661;45.700;4.880;2023-06-14T06:27:22;21.80;99.90
17092;DHT22;8661;45.700;4.880;2023-06-14T06:29:49;22.50;99.90
17092;DHT22;8661;45.700;4.880;2023-06-14T06:32:17;23.10;99.90
17092;DHT22;8661;45.700;4.880;2023-06-14T06:34:45;23.90;99.90
17092;DHT22;8661;45.700;4.880;2023-06-14T06:37:12;24.40;99.90
17092;DHT22;8661;45.700;4.880;2023-06-14T06:39:39;25.00;99.90
17092;DHT22;8661;45.700;4.880;2023-06-14T06:42:06;25.50;99.90
17092;DHT22;8661;45.700;4.880;2023-06-14T06:44:33;26.10;99.90
17092;DHT22;8661;45.700;4.880;2023-06-14T06:47:00;26.20;99.90
17092;DHT22;8661;45.700;4.880;2023-06-14T06:49:28;26.70;99.90
17092;DHT22;8661;45.700;4.880;2023-06-14T06:52:03;27.20;99.90
17092;DHT22;8661;45.700;4.880;2023-06-14T06:54:30;27.70;99.90
17092;DHT22;8661;45.700;4.880;2023-06-14T06:56:57;28.10;99.90
17092;DHT22;8661;45.700;4.880;2023-06-14T06:59:25;28.50;99.90
17092;DHT22;8661;45.700;4.880;2023-06-14T07:01:52;28.20;99.90
17092;DHT22;8661;45.700;4.880;2023-06-14T07:04:18;28.30;99.90
17092;DHT22;8661;45.700;4.880;2023-06-14T07:06:46;28.20;99.90
17092;DHT22;8661;45.700;4.880;2023-06-14T07:09:14;27.80;99.90
17092;DHT22;8661;45.700;4.880;2023-06-14T07:11:43;28.20;99.90
17092;DHT22;8661;45.700;4.880;2023-06-14T07:14:10;28.20;99.90
17092;DHT22;8661;45.700;4.880;2023-06-14T07:16:37;28.00;99.90
17092;DHT22;8661;45.700;4.880;2023-06-14T07:19:04;27.70;99.90
17092;DHT22;8661;45.700;4.880;2023-06-14T07:21:31;27.00;99.90
17092;DHT22;8661;45.700;4.880;2023-06-14T07:23:58;26.70;99.90
17092;DHT22;8661;45.700;4.880;2023-06-14T07:26:26;26.20;99.90
17092;DHT22;8661;45.700;4.880;2023-06-14T07:28:53;26.20;99.90
17092;DHT22;8661;45.700;4.880;2023-06-14T07:31:20;26.30;99.90
17092;DHT22;8661;45.700;4.880;2023-06-14T07:33:47;26.90;99.90
17092;DHT22;8661;45.700;4.880;2023-06-14T07:36:14;27.60;99.90
17092;DHT22;8661;45.700;4.880;2023-06-14T07:38:40;28.30;99.90
17092;DHT22;8661;45.700;4.880;2023-06-14T07:41:07;28.80;99.20
17092;DHT22;8661;45.700;4.880;2023-06-14T07:43:36;29.30;99.00
17092;DHT22;8661;45.700;4.880;2023-06-14T07:46:02;29.60;98.60
17092;DHT22;8661;45.700;4.880;2023-06-14T07:48:29;29.50;97.40
17092;DHT22;8661;45.700;4.880;2023-06-14T07:50:56;29.70;96.60
17092;DHT22;8661;45.700;4.880;2023-06-14T07:53:23;29.40;96.30
17092;DHT22;8661;45.700;4.880;2023-06-14T07:55:50;29.80;96.70
17092;DHT22;8661;45.700;4.880;2023-06-14T07:58:17;30.20;96.50
17092;DHT22;8661;45.700;4.880;2023-06-14T08:00:45;30.60;95.90
17092;DHT22;8661;45.700;4.880;2023-06-14T08:03:12;31.10;93.60
17092;DHT22;8661;45.700;4.880;2023-06-14T08:05:39;31.30;93.00
17092;DHT22;8661;45.700;4.880;2023-06-14T08:08:06;31.60;91.70
17092;DHT22;8661;45.700;4.880;2023-06-14T08:10:33;31.60;90.80
17092;DHT22;8661;45.700;4.880;2023-06-14T08:13:00;31.80;90.20
17092;DHT22;8661;45.700;4.880;2023-06-14T08:15:27;32.00;89.70
17092;DHT22;8661;45.700;4.880;2023-06-14T08:17:55;32.40;87.80
17092;DHT22;8661;45.700;4.880;2023-06-14T08:20:22;32.60;88.70
17092;DHT22;8661;45.700;4.880;2023-06-14T08:22:50;32.80;85.70
17092;DHT22;8661;45.700;4.880;2023-06-14T08:25:20;33.10;83.80
17092;DHT22;8661;45.700;4.880;2023-06-14T08:27:47;33.10;80.90
17092;DHT22;8661;45.700;4.880;2023-06-14T08:30:15;33.30;79.80
17092;DHT22;8661;45.700;4.880;2023-06-14T08:32:42;33.60;76.80
17092;DHT22;8661;45.700;4.880;2023-06-14T08:35:11;33.90;75.70
17092;DHT22;8661;45.700;4.880;2023-06-14T08:37:38;34.00;76.90
17092;DHT22;8661;45.700;4.880;2023-06-14T08:40:17;34.00;76.00
17092;DHT22;8661;45.700;4.880;2023-06-14T08:42:47;33.60;72.30
17092;DHT22;8661;45.700;4.880;2023-06-14T08:45:14;33.80;72.00
17092;DHT22;8661;45.700;4.880;2023-06-14T08:47:41;34.00;72.30
17092;DHT22;8661;45.700;4.880;2023-06-14T08:50:08;34.00;72.80
17092;DHT22;8661;45.700;4.880;2023-06-14T08:52:38;34.50;71.80
17092;DHT22;8661;45.700;4.880;2023-06-14T08:55:11;34.50;69.30
17092;DHT22;8661;45.700;4.880;2023-06-14T08:57:39;34.70;68.90
17092;DHT22;8661;45.700;4.880;2023-06-14T09:00:07;34.90;68.90
17092;DHT22;8661;45.700;4.880;2023-06-14T09:02:38;34.90;67.30
17092;DHT22;8661;45.700;4.880;2023-06-14T09:05:09;34.90;67.60
17092;DHT22;8661;45.700;4.880;2023-06-14T09:07:37;35.30;66.30
17092;DHT22;8661;45.700;4.880;2023-06-14T09:10:08;35.50;64.30
17092;DHT22;8661;45.700;4.880;2023-06-14T09:12:35;35.20;65.80
17092;DHT22;8661;45.700;4.880;2023-06-14T09:15:03;35.30;69.20
17092;DHT22;8661;45.700;4.880;2023-06-14T09:17:32;35.60;69.10
17092;DHT22;8661;45.700;4.880;2023-06-14T09:20:00;35.70;70.50
17092;DHT22;8661;45.700;4.880;2023-06-14T09:22:30;35.80;68.40
17092;DHT22;8661;45.700;4.880;2023-06-14T09:24:59;35.80;66.40
17092;DHT22;8661;45.700;4.880;2023-06-14T09:27:26;35.90;67.60
17092;DHT22;8661;45.700;4.880;2023-06-14T09:29:53;36.30;68.70
17092;DHT22;8661;45.700;4.880;2023-06-14T09:32:20;36.10;67.20
17092;DHT22;8661;45.700;4.880;2023-06-14T09:34:47;36.00;67.90
17092;DHT22;8661;45.700;4.880;2023-06-14T09:37:27;35.60;68.10
17092;DHT22;8661;45.700;4.880;2023-06-14T09:39:54;35.50;68.30
17092;DHT22;8661;45.700;4.880;2023-06-14T09:42:22;36.10;69.70
17092;DHT22;8661;45.700;4.880;2023-06-14T09:44:53;36.40;69.60
17092;DHT22;8661;45.700;4.880;2023-06-14T09:47:21;36.60;68.70
17092;DHT22;8661;45.700;4.880;2023-06-14T09:49:48;36.90;68.50
17092;DHT22;8661;45.700;4.880;2023-06-14T09:52:18;37.00;66.00
17092;DHT22;8661;45.700;4.880;2023-06-14T09:54:46;36.60;63.60
17092;DHT22;8661;45.700;4.880;2023-06-14T09:57:14;36.70;64.60
17092;DHT22;8661;45.700;4.880;2023-06-14T09:59:45;36.30;63.10
17092;DHT22;8661;45.700;4.880;2023-06-14T10:02:21;35.50;64.10
17092;DHT22;8661;45.700;4.880;2023-06-14T10:04:55;36.00;66.00
17092;DHT22;8661;45.700;4.880;2023-06-14T10:07:26;36.80;64.80
17092;DHT22;8661;45.700;4.880;2023-06-14T10:09:56;37.40;63.30
17092;DHT22;8661;45.700;4.880;2023-06-14T10:12:24;37.50;62.30
17092;DHT22;8661;45.700;4.880;2023-06-14T10:14:52;37.60;60.60
17092;DHT22;8661;45.700;4.880;2023-06-14T10:17:25;37.60;60.10
17092;DHT22;8661;45.700;4.880;2023-06-14T10:19:58;37.60;58.90
17092;DHT22;8661;45.700;4.880;2023-06-14T10:22:35;37.70;59.80
17092;DHT22;8661;45.700;4.880;2023-06-14T10:25:07;37.90;60.00
17092;DHT22;8661;45.700;4.880;2023-06-14T10:27:37;38.10;61.10
17092;DHT22;8661;45.700;4.880;2023-06-14T10:30:09;38.20;61.00
17092;DHT22;8661;45.700;4.880;2023-06-14T10:33:03;38.20;59.30
17092;DHT22;8661;45.700;4.880;2023-06-14T10:35:30;38.60;59.50
17092;DHT22;8661;45.700;4.880;2023-06-14T10:38:07;38.70;60.50
17092;DHT22;8661;45.700;4.880;2023-06-14T10:40:34;38.80;59.10
17092;DHT22;8661;45.700;4.880;2023-06-14T10:43:21;39.00;58.00
17092;DHT22;8661;45.700;4.880;2023-06-14T10:46:18;39.40;57.30
17092;DHT22;8661;45.700;4.880;2023-06-14T10:48:48;39.30;57.30
17092;DHT22;8661;45.700;4.880;2023-06-14T10:51:17;39.40;59.20
17092;DHT22;8661;45.700;4.880;2023-06-14T10:53:48;39.70;57.20
17092;DHT22;8661;45.700;4.880;2023-06-14T10:56:29;39.80;58.50
17092;DHT22;8661;45.700;4.880;2023-06-14T10:58:57;40.00;55.30
17092;DHT22;8661;45.700;4.880;2023-06-14T11:01:35;40.10;56.90
17092;DHT22;8661;45.700;4.880;2023-06-14T11:04:09;40.00;55.40
17092;DHT22;8661;45.700;4.880;2023-06-14T11:06:47;40.00;55.80
17092;DHT22;8661;45.700;4.880;2023-06-14T11:09:45;40.00;56.00
17092;DHT22;8661;45.700;4.880;2023-06-14T11:12:17;39.70;52.40
17092;DHT22;8661;45.700;4.880;2023-06-14T11:14:46;39.80;54.60
17092;DHT22;8661;45.700;4.880;2023-06-14T11:17:14;39.90;52.90
17092;DHT22;8661;45.700;4.880;2023-06-14T11:19:41;39.90;50.60
17092;DHT22;8661;45.700;4.880;2023-06-14T11:22:08;39.70;50.40
17092;DHT22;8661;45.700;4.880;2023-06-14T11:24:35;39.70;48.40
17092;DHT22;8661;45.700;4.880;2023-06-14T11:27:02;39.60;48.50
17092;DHT22;8661;45.700;4.880;2023-06-14T11:29:29;39.90;48.80
17092;DHT22;8661;45.700;4.880;2023-06-14T11:31:57;40.30;48.30
17092;DHT22;8661;45.700;4.880;2023-06-14T11:34:26;40.10;49.00
17092;DHT22;8661;45.700;4.880;2023-06-14T11:36:53;40.30;48.90
17092;DHT22;8661;45.700;4.880;2023-06-14T11:39:24;40.70;48.20
17092;DHT22;8661;45.700;4.880;2023-06-14T11:41:51;40.60;47.40
17092;DHT22;8661;45.700;4.880;2023-06-14T11:44:19;40.60;48.50
17092;DHT22;8661;45.700;4.880;2023-06-14T11:46:45;40.70;49.20
17092;DHT22;8661;45.700;4.880;2023-06-14T11:49:12;40.70;49.50
17092;DHT22;8661;45.700;4.880;2023-06-14T11:51:43;40.50;48.20
17092;DHT22;8661;45.700;4.880;2023-06-14T11:54:10;40.00;47.80
17092;DHT22;8661;45.700;4.880;2023-06-14T11:56:37;40.00;47.60
17092;DHT22;8661;45.700;4.880;2023-06-14T11:59:04;40.20;47.90
17092;DHT22;8661;45.700;4.880;2023-06-14T12:01:35;40.20;47.60
17092;DHT22;8661;45.700;4.880;2023-06-14T12:04:03;40.20;47.90
17092;DHT22;8661;45.700;4.880;2023-06-14T12:06:31;40.30;48.60
17092;DHT22;8661;45.700;4.880;2023-06-14T12:09:08;40.10;49.30
17092;DHT22;8661;45.700;4.880;2023-06-14T12:11:39;39.60;48.80
17092;DHT22;8661;45.700;4.880;2023-06-14T12:14:06;39.50;48.70
17092;DHT22;8661;45.700;4.880;2023-06-14T12:16:37;39.20;48.60
17092;DHT22;8661;45.700;4.880;2023-06-14T12:19:13;39.10;49.40
17092;DHT22;8661;45.700;4.880;2023-06-14T12:21:40;39.50;49.10
17092;DHT22;8661;45.700;4.880;2023-06-14T12:24:09;39.90;49.20
17092;DHT22;8661;45.700;4.880;2023-06-14T12:26:38;40.10;50.70
17092;DHT22;8661;45.700;4.880;2023-06-14T12:29:06;40.50;49.70
17092;DHT22;8661;45.700;4.880;2023-06-14T12:31:34;40.00;49.90
17092;DHT22;8661;45.700;4.880;2023-06-14T12:34:01;40.10;51.00
17092;DHT22;8661;45.700;4.880;2023-06-14T12:36:28;40.20;49.60
17092;DHT22;8661;45.700;4.880;2023-06-14T12:38:55;40.10;50.30
17092;DHT22;8661;45.700;4.880;2023-06-14T12:41:23;40.40;49.50
17092;DHT22;8661;45.700;4.880;2023-06-14T12:43:52;40.40;49.70
17092;DHT22;8661;45.700;4.880;2023-06-14T12:46:18;40.60;50.10
17092;DHT22;8661;45.700;4.880;2023-06-14T12:48:46;40.70;49.10
17092;DHT22;8661;45.700;4.880;2023-06-14T12:51:13;40.70;50.20
17092;DHT22;8661;45.700;4.880;2023-06-14T12:53:40;40.70;50.10
17092;DHT22;8661;45.700;4.880;2023-06-14T12:56:07;40.70;50.00
17092;DHT22;8661;45.700;4.880;2023-06-14T12:58:35;40.90;49.10
17092;DHT22;8661;45.700;4.880;2023-06-14T13:01:02;40.90;48.30
17092;DHT22;8661;45.700;4.880;2023-06-14T13:03:29;40.80;48.30
17092;DHT22;8661;45.700;4.880;2023-06-14T13:05:56;40.90;47.40
17092;DHT22;8661;45.700;4.880;2023-06-14T13:08:23;40.90;46.50
17092;DHT22;8661;45.700;4.880;2023-06-14T13:10:50;40.70;46.10
17092;DHT22;8661;45.700;4.880;2023-06-14T13:13:16;40.70;46.80
17092;DHT22;8661;45.700;4.880;2023-06-14T13:15:45;40.60;45.80
17092;DHT22;8661;45.700;4.880;2023-06-14T13:18:12;40.70;45.90
17092;DHT22;8661;45.700;4.880;2023-06-14T13:20:39;40.80;45.00
17092;DHT22;8661;45.700;4.880;2023-06-14T13:23:06;40.90;44.50
17092;DHT22;8661;45.700;4.880;2023-06-14T13:25:33;40.90;44.20
17092;DHT22;8661;45.700;4.880;2023-06-14T13:28:00;40.90;44.30
17092;DHT22;8661;45.700;4.880;2023-06-14T13:30:27;40.70;44.30
17092;DHT22;8661;45.700;4.880;2023-06-14T13:32:56;40.80;44.80
17092;DHT22;8661;45.700;4.880;2023-06-14T13:35:23;40.70;43.20
17092;DHT22;8661;45.700;4.880;2023-06-14T13:37:50;40.70;43.60
17092;DHT22;8661;45.700;4.880;2023-06-14T13:40:17;40.50;43.50
17092;DHT22;8661;45.700;4.880;2023-06-14T13:42:45;40.50;42.60
17092;DHT22;8661;45.700;4.880;2023-06-14T13:45:12;40.50;42.10
17092;DHT22;8661;45.700;4.880;2023-06-14T13:47:39;40.50;42.10
17092;DHT22;8661;45.700;4.880;2023-06-14T13:50:08;40.60;41.70
17092;DHT22;8661;45.700;4.880;2023-06-14T13:52:35;40.50;42.20
17092;DHT22;8661;45.700;4.880;2023-06-14T13:55:02;40.60;41.50
17092;DHT22;8661;45.700;4.880;2023-06-14T13:57:30;40.70;40.90
17092;DHT22;8661;45.700;4.880;2023-06-14T13:59:57;40.60;40.90
17092;DHT22;8661;45.700;4.880;2023-06-14T14:02:26;40.70;41.50
17092;DHT22;8661;45.700;4.880;2023-06-14T14:04:54;40.70;40.50
17092;DHT22;8661;45.700;4.880;2023-06-14T14:07:22;40.60;40.20
17092;DHT22;8661;45.700;4.880;2023-06-14T14:09:49;40.10;41.00
17092;DHT22;8661;45.700;4.880;2023-06-14T14:12:16;39.80;41.30
17092;DHT22;8661;45.700;4.880;2023-06-14T14:14:43;39.70;42.80
17092;DHT22;8661;45.700;4.880;2023-06-14T14:17:11;39.50;42.20
17092;DHT22;8661;45.700;4.880;2023-06-14T14:19:38;39.30;42.40
17092;DHT22;8661;45.700;4.880;2023-06-14T14:22:05;39.20;42.60
17092;DHT22;8661;45.700;4.880;2023-06-14T14:24:34;38.90;41.10
17092;DHT22;8661;45.700;4.880;2023-06-14T14:27:01;38.50;41.30
17092;DHT22;8661;45.700;4.880;2023-06-14T14:29:28;38.40;40.80
17092;DHT22;8661;45.700;4.880;2023-06-14T14:31:55;38.40;42.30
17092;DHT22;8661;45.700;4.880;2023-06-14T14:34:22;38.30;42.20
17092;DHT22;8661;45.700;4.880;2023-06-14T14:36:49;38.10;42.90
17092;DHT22;8661;45.700;4.880;2023-06-14T14:39:16;37.80;42.30
17092;DHT22;8661;45.700;4.880;2023-06-14T14:41:44;37.50;41.40
17092;DHT22;8661;45.700;4.880;2023-06-14T14:44:11;36.80;41.30
17092;DHT22;8661;45.700;4.880;2023-06-14T14:46:38;36.40;42.20
17092;DHT22;8661;45.700;4.880;2023-06-14T14:49:05;36.20;43.00
17092;DHT22;8661;45.700;4.880;2023-06-14T14:51:31;36.00;42.20
17092;DHT22;8661;45.700;4.880;2023-06-14T14:53:58;35.70;43.30
17092;DHT22;8661;45.700;4.880;2023-06-14T14:56:25;35.50;42.90
17092;DHT22;8661;45.700;4.880;2023-06-14T14:58:54;35.20;42.00
17092;DHT22;8661;45.700;4.880;2023-06-14T15:01:21;34.90;41.60
17092;DHT22;8661;45.700;4.880;2023-06-14T15:03:47;34.60;40.90
17092;DHT22;8661;45.700;4.880;2023-06-14T15:06:15;34.30;40.70
17092;DHT22;8661;45.700;4.880;2023-06-14T15:08:43;34.20;41.50
17092;DHT22;8661;45.700;4.880;2023-06-14T15:11:10;34.00;41.70
17092;DHT22;8661;45.700;4.880;2023-06-14T15:13:37;33.60;41.00
17092;DHT22;8661;45.700;4.880;2023-06-14T15:16:05;33.40;41.70
17092;DHT22;8661;45.700;4.880;2023-06-14T15:18:32;33.30;42.30
17092;DHT22;8661;45.700;4.880;2023-06-14T15:20:59;33.20;42.50
17092;DHT22;8661;45.700;4.880;2023-06-14T15:23:26;32.80;42.20
17092;DHT22;8661;45.700;4.880;2023-06-14T15:25:55;32.60;41.80
17092;DHT22;8661;45.700;4.880;2023-06-14T15:28:23;32.40;42.10
17092;DHT22;8661;45.700;4.880;2023-06-14T15:30:53;32.20;41.90
17092;DHT22;8661;45.700;4.880;2023-06-14T15:33:22;32.00;41.70
17092;DHT22;8661;45.700;4.880;2023-06-14T15:35:48;31.80;41.30
17092;DHT22;8661;45.700;4.880;2023-06-14T15:38:15;31.50;40.30
17092;DHT22;8661;45.700;4.880;2023-06-14T15:40:42;31.30;41.00
17092;DHT22;8661;45.700;4.880;2023-06-14T15:43:09;31.10;41.30
17092;DHT22;8661;45.700;4.880;2023-06-14T15:45:36;30.90;41.40
17092;DHT22;8661;45.700;4.880;2023-06-14T15:48:03;30.90;41.60
17092;DHT22;8661;45.700;4.880;2023-06-14T15:50:31;30.80;42.20